createdAt,value
2022-09-21T00:01:19.395Z,84.21
2022-09-21T00:03:46.778Z,84.30
2022-09-21T00:06:17.312Z,84.42
2022-09-21T00:08:44.829Z,84.50
2022-09-21T00:11:14.225Z,84.04
2022-09-21T00:13:42.306Z,84.20
2022-09-21T00:16:09.709Z,84.32
2022-09-21T00:18:37.543Z,84.17
2022-09-21T00:21:09.313Z,84.17
2022-09-21T00:23:36.817Z,84.02
2022-09-21T00:26:18.254Z,84.46
2022-09-21T00:28:45.898Z,84.56
2022-09-21T00:31:16.582Z,84.52
2022-09-21T00:33:43.802Z,84.52
2022-09-21T00:36:15.129Z,84.26
2022-09-21T00:38:42.203Z,83.98
2022-09-21T00:41:10.729Z,83.98
2022-09-21T00:43:41.241Z,84.23
2022-09-21T00:46:27.946Z,84.56
2022-09-21T00:48:54.892Z,84.89
2022-09-21T00:51:21.789Z,85.06
2022-09-21T00:53:52.123Z,85.41
2022-09-21T00:56:20.432Z,85.54
2022-09-21T00:58:50.220Z,85.66
2022-09-21T01:01:19.968Z,86.14
2022-09-21T01:03:50.778Z,86.15
2022-09-21T01:06:19.644Z,86.13
2022-09-21T01:08:52.776Z,86.27
2022-09-21T01:11:39.399Z,86.29
2022-09-21T01:14:32.167Z,86.21
2022-09-21T01:17:25.520Z,86.31
2022-09-21T01:20:03.258Z,86.09
2022-09-21T01:22:53.663Z,85.93
2022-09-21T01:25:38.849Z,86.18
2022-09-21T01:28:33.480Z,86.22
2022-09-21T01:31:06.299Z,86.03
2022-09-21T01:33:37.590Z,86.07
2022-09-21T01:36:12.048Z,86.27
2022-09-21T01:38:43.855Z,86.00
2022-09-21T01:41:13.508Z,86.19
2022-09-21T01:43:46.982Z,86.19
2022-09-21T01:46:17.464Z,86.47
2022-09-21T01:48:50.314Z,86.59
2022-09-21T01:51:19.015Z,86.31
2022-09-21T01:53:52.810Z,86.63
2022-09-21T01:56:26.181Z,86.61
2022-09-21T01:58:59.580Z,86.59
2022-09-21T02:01:28.307Z,86.40
2022-09-21T02:03:59.078Z,86.51
2022-09-21T02:06:27.268Z,86.23
2022-09-21T02:08:54.145Z,86.41
2022-09-21T02:11:21.572Z,86.23
2022-09-21T02:13:50.748Z,86.08
2022-09-21T02:16:29.703Z,85.98
2022-09-21T02:19:13.008Z,85.98
2022-09-21T02:22:04.070Z,86.26
2022-09-21T02:24:36.113Z,86.29
2022-09-21T02:27:06.350Z,86.44
2022-09-21T02:29:45.178Z,86.26
2022-09-21T02:32:33.613Z,86.61
2022-09-21T02:35:37.291Z,86.68
2022-09-21T02:38:27.748Z,86.62
2022-09-21T02:41:06.601Z,86.38
2022-09-21T02:43:49.161Z,86.58
2022-09-21T02:46:27.959Z,86.63
2022-09-21T02:49:09.280Z,86.69
2022-09-21T02:51:40.560Z,86.52
2022-09-21T02:54:09.245Z,86.66
2022-09-21T02:56:36.905Z,86.98
2022-09-21T02:59:05.041Z,87.12
2022-09-21T03:01:32.540Z,86.79
2022-09-21T03:03:59.533Z,87.11
2022-09-21T03:06:26.738Z,86.51
2022-09-21T03:08:53.558Z,86.71
2022-09-21T03:11:20.665Z,86.76
2022-09-21T03:13:47.489Z,86.49
2022-09-21T03:16:17.050Z,86.61
2022-09-21T03:18:44.473Z,86.42
2022-09-21T03:21:12.426Z,86.69
2022-09-21T03:23:39.979Z,86.53
2022-09-21T03:26:06.905Z,86.78
2022-09-21T03:28:33.677Z,86.96
2022-09-21T03:31:00.519Z,86.92
2022-09-21T03:33:27.344Z,86.74
2022-09-21T03:35:54.545Z,87.11
2022-09-21T03:38:21.784Z,87.05
2022-09-21T03:40:49.385Z,87.07
2022-09-21T03:43:17.325Z,87.20
2022-09-21T03:45:44.238Z,87.18
2022-09-21T03:48:11.657Z,87.21
2022-09-21T03:50:38.907Z,87.36
2022-09-21T03:53:06.053Z,87.50
2022-09-21T03:55:33.395Z,87.40
2022-09-21T03:58:00.287Z,87.72
2022-09-21T04:00:27.476Z,87.53
2022-09-21T04:02:56.654Z,87.73
2022-09-21T04:05:23.650Z,87.75
2022-09-21T04:07:50.557Z,88.03
2022-09-21T04:10:19.830Z,88.00
2022-09-21T04:12:47.281Z,87.96
2022-09-21T04:15:16.138Z,87.92
2022-09-21T04:17:42.850Z,88.15
2022-09-21T04:20:09.831Z,87.85
2022-09-21T04:22:39.973Z,88.10
2022-09-21T04:25:10.692Z,88.04
2022-09-21T04:27:37.477Z,88.27
2022-09-21T04:30:05.751Z,88.15
2022-09-21T04:32:32.563Z,88.19
2022-09-21T04:34:59.244Z,88.58
2022-09-21T04:37:25.899Z,88.27
2022-09-21T04:39:52.578Z,88.44
2022-09-21T04:42:19.433Z,88.85
2022-09-21T04:44:46.403Z,88.78
2022-09-21T04:47:16.233Z,88.88
2022-09-21T04:49:42.892Z,88.95
2022-09-21T04:52:10.696Z,89.11
2022-09-21T04:54:37.422Z,88.74
2022-09-21T04:57:04.382Z,88.94
2022-09-21T04:59:31.118Z,88.89
2022-09-21T05:01:57.822Z,88.99
2022-09-21T05:04:24.507Z,89.00
2022-09-21T05:06:51.190Z,88.99
2022-09-21T05:09:36.627Z,88.85
2022-09-21T05:12:03.582Z,88.82
2022-09-21T05:14:30.277Z,88.54
2022-09-21T05:16:57.163Z,88.69
2022-09-21T05:19:24.004Z,88.42
2022-09-21T05:21:50.701Z,88.36
2022-09-21T05:24:17.468Z,88.55
2022-09-21T05:26:44.130Z,88.22
2022-09-21T05:29:11.329Z,88.25
2022-09-21T05:31:44.310Z,87.99
2022-09-21T05:34:25.195Z,87.86
2022-09-21T05:36:59.289Z,87.63
2022-09-21T05:39:26.326Z,87.75
2022-09-21T05:41:56.099Z,87.43
2022-09-21T05:44:23.175Z,87.42
2022-09-21T05:47:02.325Z,87.57
2022-09-21T05:49:50.359Z,87.20
2022-09-21T05:52:24.713Z,87.10
2022-09-21T05:54:57.497Z,86.98
2022-09-21T05:57:44.525Z,86.60
2022-09-21T06:00:22.533Z,86.68
2022-09-21T06:03:23.564Z,86.58
2022-09-21T06:05:54.597Z,86.56
2022-09-21T06:08:22.213Z,86.68
2022-09-21T06:10:49.091Z,86.47
2022-09-21T06:13:18.652Z,86.44
2022-09-21T06:15:45.410Z,86.41
2022-09-21T06:18:17.510Z,86.29
2022-09-21T06:20:44.991Z,86.47
2022-09-21T06:23:15.552Z,86.13
2022-09-21T06:25:42.463Z,86.31
2022-09-21T06:28:31.184Z,86.45
2022-09-21T06:30:58.596Z,86.45
2022-09-21T06:33:25.596Z,86.35
2022-09-21T06:35:57.399Z,86.33
2022-09-21T06:38:26.771Z,86.57
2022-09-21T06:40:54.114Z,86.69
2022-09-21T06:43:21.297Z,86.64
2022-09-21T06:45:55.956Z,86.69
2022-09-21T06:48:23.124Z,86.66
2022-09-21T06:50:50.990Z,86.91
2022-09-21T06:53:18.266Z,86.60
2022-09-21T06:55:45.226Z,86.74
2022-09-21T06:58:12.201Z,86.73
2022-09-21T07:00:39.062Z,86.89
2022-09-21T07:03:05.927Z,86.97
2022-09-21T07:05:42.924Z,86.93
2022-09-21T07:10:05.100Z,86.89
2022-09-21T07:11:03.158Z,86.71
2022-09-21T07:13:35.731Z,87.11
2022-09-21T07:16:09.328Z,86.89
2022-09-21T07:18:43.545Z,86.91
2022-09-21T07:21:11.907Z,86.83
2022-09-21T07:23:39.061Z,86.88
2022-09-21T07:26:14.301Z,86.96
2022-09-21T07:28:41.633Z,86.87
2022-09-21T07:31:15.707Z,86.60
2022-09-21T07:33:43.999Z,87.02
2022-09-21T07:36:14.071Z,86.71
2022-09-21T07:38:42.453Z,87.05
2022-09-21T07:41:14.375Z,87.14
2022-09-21T07:43:41.616Z,86.91
2022-09-21T07:46:12.089Z,86.99
2022-09-21T07:48:39.309Z,86.85
2022-09-21T07:51:09.254Z,86.58
2022-09-21T07:53:37.378Z,86.63
2022-09-21T07:56:06.008Z,86.48
2022-09-21T07:58:51.519Z,86.56
2022-09-21T08:01:18.611Z,86.33
2022-09-21T08:03:48.407Z,86.51
2022-09-21T08:06:17.936Z,86.47
2022-09-21T08:08:57.687Z,86.39
2022-09-21T08:11:26.273Z,86.37
2022-09-21T08:14:04.919Z,86.24
2022-09-21T08:16:32.699Z,86.12
2022-09-21T08:19:00.012Z,86.14
2022-09-21T08:21:32.062Z,85.95
2022-09-21T08:24:06.324Z,85.95
2022-09-21T08:26:36.425Z,85.86
2022-09-21T08:29:03.888Z,86.08
2022-09-21T08:31:31.144Z,85.73
2022-09-21T08:33:58.196Z,85.72
2022-09-21T08:36:25.623Z,85.69
2022-09-21T08:38:52.804Z,85.60
2022-09-21T08:42:08.101Z,85.38
2022-09-21T08:44:51.578Z,85.34
2022-09-21T08:47:45.491Z,85.61
2022-09-21T08:50:34.237Z,85.29
2022-09-21T08:53:04.987Z,85.67
2022-09-21T08:55:31.873Z,85.58
2022-09-21T08:58:02.008Z,85.82
2022-09-21T09:00:30.791Z,85.39
2022-09-21T09:03:34.621Z,85.59
2022-09-21T09:06:17.740Z,85.30
2022-09-21T09:08:59.876Z,85.46
2022-09-21T09:12:08.601Z,85.47
2022-09-21T09:14:49.999Z,85.21
2022-09-21T09:17:46.709Z,85.33
2022-09-21T09:20:36.893Z,84.92
2022-09-21T09:23:08.150Z,84.94
2022-09-21T09:25:41.764Z,84.75
2022-09-21T09:28:27.046Z,84.66
2022-09-21T09:31:18.822Z,84.58
2022-09-21T09:34:12.103Z,84.83
2022-09-21T09:36:58.201Z,84.80
2022-09-21T09:39:26.275Z,84.25
2022-09-21T09:42:02.439Z,83.95
2022-09-21T09:44:50.835Z,83.41
2022-09-21T09:47:54.939Z,82.83
2022-09-21T09:50:30.202Z,81.16
2022-09-21T09:53:05.792Z,79.78
2022-09-21T09:55:38.355Z,78.92
2022-09-21T09:58:05.420Z,77.72
2022-09-21T10:00:33.105Z,77.68
2022-09-21T10:02:59.909Z,77.05
2022-09-21T10:05:35.210Z,76.59
2022-09-21T10:08:02.418Z,75.27
2022-09-21T10:10:29.150Z,74.55
2022-09-21T10:13:27.515Z,74.02
2022-09-21T10:15:57.299Z,73.41
2022-09-21T10:18:25.678Z,73.34
2022-09-21T10:20:56.919Z,72.83
2022-09-21T10:23:24.558Z,72.34
2022-09-21T10:26:03.485Z,71.79
2022-09-21T10:28:31.108Z,71.60
2022-09-21T10:31:19.412Z,71.09
2022-09-21T10:34:04.889Z,70.81
2022-09-21T10:36:35.909Z,70.95
2022-09-21T10:39:28.684Z,69.56
2022-09-21T10:42:11.578Z,68.98
2022-09-21T10:44:46.065Z,68.72
2022-09-21T10:47:34.131Z,68.63
2022-09-21T10:50:02.971Z,67.73
2022-09-21T10:52:45.951Z,66.76
2022-09-21T10:55:22.149Z,67.19
2022-09-21T10:57:50.120Z,66.05
2022-09-21T11:00:28.849Z,64.11
2022-09-21T11:02:56.984Z,61.83
2022-09-21T11:05:27.913Z,62.32
2022-09-21T11:08:17.535Z,62.11
2022-09-21T11:11:10.102Z,61.24
2022-09-21T11:13:48.031Z,62.39
2022-09-21T11:16:33.611Z,63.48
2022-09-21T11:19:10.581Z,64.65
2022-09-21T11:21:58.219Z,64.68
2022-09-21T11:24:40.391Z,64.96
2022-09-21T11:27:11.551Z,65.40
2022-09-21T11:29:56.272Z,65.19
2022-09-21T11:32:29.818Z,65.42
2022-09-21T11:35:15.515Z,65.35
2022-09-21T11:37:51.827Z,63.70
2022-09-21T11:40:49.053Z,62.74
2022-09-21T11:43:27.939Z,62.29
2022-09-21T11:46:09.623Z,62.49
2022-09-21T11:49:02.014Z,61.19
2022-09-21T11:51:43.625Z,61.38
2022-09-21T11:54:35.196Z,62.00
2022-09-21T11:57:25.910Z,61.55
2022-09-21T12:00:05.308Z,61.31
2022-09-21T12:02:46.386Z,61.59
2022-09-21T12:05:31.856Z,60.87
2022-09-21T12:08:09.646Z,59.98
2022-09-21T12:11:14.325Z,60.01
2022-09-21T12:14:12.043Z,60.61
2022-09-21T12:16:45.419Z,61.04
2022-09-21T12:19:34.049Z,58.72
2022-09-21T12:22:06.776Z,58.36
2022-09-21T12:24:41.138Z,58.40
2022-09-21T12:27:22.108Z,58.09
2022-09-21T12:29:53.677Z,58.26
2022-09-21T12:32:53.678Z,57.37
2022-09-21T12:35:36.167Z,57.52
2022-09-21T12:38:17.075Z,56.68
2022-09-21T12:40:50.076Z,56.70
2022-09-21T12:43:37.098Z,56.68
2022-09-21T12:46:22.102Z,56.66
2022-09-21T12:49:15.444Z,56.15
2022-09-21T12:51:46.048Z,55.89
2022-09-21T12:54:21.050Z,55.09
2022-09-21T12:57:23.579Z,53.48
2022-09-21T13:00:04.679Z,51.57
2022-09-21T13:02:46.091Z,52.19
2022-09-21T13:05:36.798Z,51.64
2022-09-21T13:08:08.582Z,52.28
2022-09-21T13:10:42.733Z,52.60
2022-09-21T13:13:28.136Z,52.93
2022-09-21T13:15:55.786Z,52.85
2022-09-21T13:18:36.226Z,52.78
2022-09-21T13:21:16.646Z,52.15
2022-09-21T13:23:44.126Z,52.06
2022-09-21T13:26:12.951Z,50.41
2022-09-21T13:28:55.022Z,51.49
2022-09-21T13:31:41.300Z,50.51
2022-09-21T13:34:51.142Z,49.30
2022-09-21T13:37:20.882Z,48.98
2022-09-21T13:39:50.607Z,49.97
2022-09-21T13:42:29.727Z,49.40
2022-09-21T13:45:36.839Z,49.91
2022-09-21T13:48:17.725Z,50.04
2022-09-21T13:50:44.525Z,50.79
2022-09-21T13:53:25.209Z,49.94
2022-09-21T13:55:54.826Z,49.76
2022-09-21T13:58:32.446Z,49.38
2022-09-21T14:01:02.734Z,49.30
2022-09-21T14:03:38.383Z,49.56
2022-09-21T14:06:08.792Z,49.64
2022-09-21T14:08:43.167Z,50.62
2022-09-21T14:11:24.060Z,50.29
2022-09-21T14:14:24.984Z,49.85
2022-09-21T14:16:56.010Z,49.59
2022-09-21T14:19:23.297Z,49.52
2022-09-21T14:22:08.517Z,49.50
2022-09-21T14:24:39.074Z,49.98
2022-09-21T14:27:16.533Z,49.98
2022-09-21T14:29:47.211Z,50.01
2022-09-21T14:32:19.387Z,50.09
2022-09-21T14:34:48.687Z,49.93
2022-09-21T14:37:32.363Z,50.68
2022-09-21T14:40:01.226Z,50.38
2022-09-21T14:42:29.399Z,50.02
2022-09-21T14:44:57.615Z,50.20
2022-09-21T14:47:36.414Z,50.41
2022-09-21T14:50:23.507Z,50.17
2022-09-21T14:53:23.279Z,50.03
2022-09-21T14:56:11.621Z,50.33
2022-09-21T14:58:47.053Z,49.15
2022-09-21T15:01:26.662Z,47.54
2022-09-21T15:04:19.844Z,44.34
2022-09-21T15:07:25.576Z,42.85
2022-09-21T15:10:53.085Z,42.88
2022-09-21T15:13:45.359Z,43.43
2022-09-21T15:16:22.243Z,44.13
2022-09-21T15:18:51.660Z,44.15
2022-09-21T15:21:30.630Z,44.32
2022-09-21T15:24:05.878Z,44.84
2022-09-21T15:26:34.101Z,44.90
2022-09-21T15:29:09.670Z,45.09
2022-09-21T15:31:41.983Z,45.11
2022-09-21T15:34:14.233Z,45.17
2022-09-21T15:36:43.563Z,44.63
2022-09-21T15:39:31.122Z,43.34
2022-09-21T15:42:23.108Z,43.71
2022-09-21T15:44:55.227Z,44.11
2022-09-21T15:47:31.707Z,43.73
2022-09-21T15:50:15.213Z,43.22
2022-09-21T15:53:12.180Z,43.08
2022-09-21T15:55:58.417Z,43.67
2022-09-21T15:59:28.501Z,43.36
2022-09-21T16:02:36.211Z,43.73
2022-09-21T16:05:39.090Z,43.81
2022-09-21T16:08:43.617Z,43.75
2022-09-21T16:11:34.631Z,44.00
2022-09-21T16:14:46.759Z,44.27
2022-09-21T16:17:39.979Z,44.40
2022-09-21T16:20:27.947Z,44.40
2022-09-21T16:23:23.604Z,44.28
2022-09-21T16:26:03.030Z,44.72
2022-09-21T16:28:40.209Z,45.64
2022-09-21T16:31:30.098Z,46.55
2022-09-21T16:34:06.975Z,47.67
2022-09-21T16:36:36.701Z,48.52
2022-09-21T16:39:07.401Z,49.09
2022-09-21T16:41:42.096Z,49.80
2022-09-21T16:44:24.149Z,50.67
2022-09-21T16:46:54.250Z,51.43
2022-09-21T16:49:36.809Z,51.87
2022-09-21T16:52:04.185Z,52.00
2022-09-21T16:54:31.180Z,52.38
2022-09-21T16:57:03.718Z,52.81
2022-09-21T16:59:30.949Z,53.08
2022-09-21T17:01:58.570Z,53.18
2022-09-21T17:04:29.573Z,53.58
2022-09-21T17:07:00.526Z,54.34
2022-09-21T17:09:35.194Z,54.45
2022-09-21T17:12:04.072Z,54.96
2022-09-21T17:14:41.798Z,55.24
2022-09-21T17:17:21.159Z,55.84
2022-09-21T17:19:50.233Z,55.72
2022-09-21T17:22:18.338Z,56.44
2022-09-21T17:24:52.851Z,56.39
2022-09-21T17:27:22.816Z,56.55
2022-09-21T17:29:57.425Z,56.93
2022-09-21T17:32:24.866Z,57.39
2022-09-21T17:35:00.810Z,57.55
2022-09-21T17:37:27.785Z,57.63
2022-09-21T17:39:57.223Z,58.54
2022-09-21T17:42:27.016Z,58.66
2022-09-21T17:45:26.813Z,59.45
2022-09-21T17:47:59.955Z,59.81
2022-09-21T17:50:28.364Z,59.76
2022-09-21T17:53:14.778Z,60.15
2022-09-21T17:55:49.667Z,60.54
2022-09-21T17:58:27.514Z,61.21
2022-09-21T18:01:02.130Z,61.41
2022-09-21T18:03:30.988Z,61.41
2022-09-21T18:06:01.062Z,62.24
2022-09-21T18:08:36.218Z,62.76
2022-09-21T18:11:22.128Z,63.39
2022-09-21T18:14:07.268Z,63.62
2022-09-21T18:17:10.954Z,63.29
2022-09-21T18:19:55.389Z,63.02
2022-09-21T18:23:09.644Z,63.59
2022-09-21T18:25:48.039Z,63.34
2022-09-21T18:28:17.603Z,63.67
2022-09-21T18:31:12.634Z,63.80
2022-09-21T18:34:15.665Z,64.65
2022-09-21T18:40:12.979Z,65.88
2022-09-21T18:42:50.896Z,66.33
2022-09-21T18:45:36.922Z,66.45
2022-09-21T18:48:16.450Z,66.82
2022-09-21T18:50:55.358Z,67.39
2022-09-21T18:53:58.375Z,67.36
2022-09-21T18:56:37.157Z,67.43
2022-09-21T18:59:06.014Z,67.98
2022-09-21T19:01:34.198Z,68.16
2022-09-21T19:04:01.692Z,68.30
2022-09-21T19:06:34.731Z,68.65
2022-09-21T19:09:52.251Z,68.75
2022-09-21T19:16:06.741Z,68.94
2022-09-21T19:19:02.834Z,69.53
2022-09-21T19:21:38.627Z,69.73
2022-09-21T19:24:25.460Z,69.64
2022-09-21T19:27:04.282Z,69.42
2022-09-21T19:29:52.821Z,69.89
2022-09-21T19:32:41.519Z,69.73
2022-09-21T19:35:26.959Z,69.83
2022-09-21T19:37:55.779Z,70.12
2022-09-21T19:40:33.834Z,70.11
2022-09-21T19:43:31.230Z,70.72
2022-09-21T19:46:18.680Z,70.84
2022-09-21T19:48:47.826Z,70.85
2022-09-21T19:51:19.640Z,71.29
2022-09-21T19:54:11.842Z,71.58
2022-09-21T19:57:05.078Z,71.58
2022-09-21T19:59:44.099Z,71.80
2022-09-21T20:02:25.413Z,72.03
2022-09-21T20:04:56.183Z,71.93
2022-09-21T20:07:52.018Z,72.16
2022-09-21T20:10:25.198Z,72.08
2022-09-21T20:13:13.551Z,72.24
2022-09-21T20:16:07.971Z,72.54
2022-09-21T20:18:43.461Z,72.72
2022-09-21T20:21:15.460Z,72.77
2022-09-21T20:23:42.673Z,72.95
2022-09-21T20:26:28.183Z,73.15
2022-09-21T20:28:55.271Z,73.47
2022-09-21T20:31:24.060Z,73.75
2022-09-21T20:33:51.898Z,73.72
2022-09-21T20:36:18.557Z,74.24
2022-09-21T20:38:45.298Z,74.27
2022-09-21T20:41:13.211Z,74.16
2022-09-21T20:43:39.922Z,74.71
2022-09-21T20:46:06.742Z,74.87
2022-09-21T20:48:37.337Z,75.02
2022-09-21T20:51:06.273Z,74.78
2022-09-21T20:53:34.096Z,75.35
2022-09-21T20:56:03.822Z,75.25
2022-09-21T20:58:31.071Z,75.19
2022-09-21T21:01:06.200Z,75.29
2022-09-21T21:03:33.806Z,75.11
2022-09-21T21:06:09.147Z,75.07
2022-09-21T21:08:36.209Z,75.16
2022-09-21T21:11:02.985Z,75.18
2022-09-21T21:13:30.366Z,75.28
2022-09-21T21:15:57.222Z,75.17
2022-09-21T21:18:23.996Z,75.32
2022-09-21T21:20:51.235Z,75.40
2022-09-21T21:23:18.540Z,75.30
2022-09-21T21:25:46.001Z,75.66
2022-09-21T21:28:13.131Z,75.33
2022-09-21T21:30:40.320Z,75.56
2022-09-21T21:33:07.078Z,75.81
2022-09-21T21:35:33.809Z,75.74
2022-09-21T21:38:00.786Z,76.01
2022-09-21T21:40:27.551Z,76.39
2022-09-21T21:42:56.032Z,76.15
2022-09-21T21:45:22.773Z,76.49
2022-09-21T21:47:49.846Z,76.57
2022-09-21T21:50:16.797Z,76.78
2022-09-21T21:52:45.330Z,76.95
2022-09-21T21:55:12.430Z,77.11
2022-09-21T21:57:39.295Z,76.98
2022-09-21T22:00:07.734Z,77.19
2022-09-21T22:02:34.761Z,76.73
2022-09-21T22:05:01.620Z,77.00
2022-09-21T22:07:28.711Z,76.88
2022-09-21T22:09:55.737Z,76.88
2022-09-21T22:12:22.438Z,76.89
2022-09-21T22:14:49.634Z,76.63
2022-09-21T22:17:16.378Z,76.76
2022-09-21T22:19:43.357Z,76.87
2022-09-21T22:22:10.069Z,76.94
2022-09-21T22:24:36.836Z,76.74
2022-09-21T22:27:03.576Z,76.79
2022-09-21T22:29:30.290Z,76.92
2022-09-21T22:31:57.086Z,76.75
2022-09-21T22:34:24.125Z,76.48
2022-09-21T22:36:50.992Z,76.83
2022-09-21T22:39:17.700Z,76.69
2022-09-21T22:41:44.345Z,76.97
2022-09-21T22:44:11.703Z,76.87
2022-09-21T22:46:38.867Z,77.12
2022-09-21T22:49:05.926Z,77.38
2022-09-21T22:51:32.917Z,77.51
2022-09-21T22:54:01.621Z,77.63
2022-09-21T22:56:32.662Z,77.62
2022-09-21T22:59:01.426Z,77.56
2022-09-21T23:01:46.285Z,77.57
2022-09-21T23:04:13.648Z,77.83
2022-09-21T23:06:42.940Z,77.57
2022-09-21T23:09:15.191Z,78.04
2022-09-21T23:11:43.998Z,78.08
2022-09-21T23:14:11.349Z,77.93
2022-09-21T23:16:38.181Z,77.74
2022-09-21T23:19:05.033Z,77.62
2022-09-21T23:21:31.752Z,77.56
2022-09-21T23:24:01.267Z,77.80
2022-09-21T23:26:30.327Z,77.64
2022-09-21T23:28:59.214Z,77.62
2022-09-21T23:31:29.486Z,77.52
2022-09-21T23:33:58.858Z,77.48
2022-09-21T23:36:28.521Z,77.46
2022-09-21T23:38:55.461Z,77.52
2022-09-21T23:41:24.801Z,77.78
2022-09-21T23:43:52.043Z,77.63
2022-09-21T23:46:20.976Z,77.96
2022-09-21T23:48:48.645Z,77.88
2022-09-21T23:51:15.613Z,77.99
2022-09-21T23:53:43.630Z,78.04
2022-09-21T23:56:14.889Z,77.82
2022-09-21T23:58:41.717Z,78.02
